createdAt,value
2018-06-21T00:00:23.528Z,63.53
2018-06-21T00:01:23.553Z,63.53
2018-06-21T00:02:23.570Z,63.63
2018-06-21T00:03:23.591Z,63.63
2018-06-21T00:04:23.618Z,63.63
2018-06-21T00:05:23.642Z,63.43
2018-06-21T00:06:23.678Z,63.43
2018-06-21T00:07:23.695Z,63.53
2018-06-21T00:08:23.712Z,63.73
2018-06-21T00:09:23.740Z,63.43
2018-06-21T00:10:23.764Z,63.63
2018-06-21T00:11:23.784Z,63.34
2018-06-21T00:12:23.810Z,63.63
2018-06-21T00:13:23.835Z,63.43
2018-06-21T00:14:23.852Z,63.34
2018-06-21T00:15:23.879Z,63.34
2018-06-21T00:16:23.903Z,63.63
2018-06-21T00:17:23.925Z,63.63
2018-06-21T00:18:23.979Z,63.34
2018-06-21T00:19:23.973Z,63.73
2018-06-21T00:20:23.993Z,63.34
2018-06-21T00:21:24.017Z,63.34
2018-06-21T00:22:24.045Z,63.82
2018-06-21T00:23:24.068Z,63.73
2018-06-21T00:24:24.088Z,63.53
2018-06-21T00:25:24.111Z,63.73
2018-06-21T00:26:24.138Z,63.73
2018-06-21T00:27:24.164Z,63.73
2018-06-21T00:28:24.187Z,63.73
2018-06-21T00:29:24.322Z,63.82
2018-06-21T00:30:24.234Z,63.63
2018-06-21T00:31:24.256Z,63.73
2018-06-21T00:32:24.279Z,63.73
2018-06-21T00:33:24.304Z,63.73
2018-06-21T00:34:24.323Z,63.82
2018-06-21T00:35:24.347Z,63.73
2018-06-21T00:36:24.371Z,63.73
2018-06-21T00:37:24.396Z,63.82
2018-06-21T00:38:24.422Z,63.73
2018-06-21T00:39:24.447Z,63.82
2018-06-21T00:40:24.466Z,64.11
2018-06-21T00:41:24.488Z,64.11
2018-06-21T00:42:24.516Z,63.82
2018-06-21T00:43:24.541Z,64.11
2018-06-21T00:44:24.562Z,64.21
2018-06-21T00:45:24.591Z,63.73
2018-06-21T00:46:24.604Z,63.73
2018-06-21T00:47:24.634Z,63.92
2018-06-21T00:48:24.660Z,63.92
2018-06-21T00:49:24.676Z,64.40
2018-06-21T00:50:24.703Z,64.40
2018-06-21T00:51:24.721Z,63.92
2018-06-21T00:52:24.743Z,64.31
2018-06-21T00:53:24.772Z,64.31
2018-06-21T00:54:24.802Z,64.21
2018-06-21T00:55:24.819Z,64.40
2018-06-21T00:56:24.844Z,64.31
2018-06-21T00:57:24.864Z,64.40
2018-06-21T00:58:24.883Z,64.31
2018-06-21T00:59:24.911Z,64.21
2018-06-21T01:00:24.934Z,64.21
2018-06-21T01:01:24.962Z,64.11
2018-06-21T01:02:24.985Z,64.01
2018-06-21T01:03:25.006Z,64.11
2018-06-21T01:04:25.032Z,64.21
2018-06-21T01:05:25.078Z,64.31
2018-06-21T01:06:25.077Z,64.50
2018-06-21T01:07:25.109Z,64.11
2018-06-21T01:08:25.124Z,64.31
2018-06-21T01:09:25.146Z,64.21
2018-06-21T01:10:25.167Z,64.21
2018-06-21T01:11:25.195Z,64.21
2018-06-21T01:12:25.221Z,64.11
2018-06-21T01:13:25.239Z,64.21
2018-06-21T01:14:25.262Z,64.50
2018-06-21T01:15:25.283Z,64.50
2018-06-21T01:16:25.307Z,64.59
2018-06-21T01:17:25.335Z,64.40
2018-06-21T01:18:25.360Z,64.31
2018-06-21T01:19:25.379Z,64.31
2018-06-21T01:20:25.403Z,64.59
2018-06-21T01:21:25.429Z,64.40
2018-06-21T01:22:25.453Z,64.40
2018-06-21T01:23:25.477Z,64.40
2018-06-21T01:24:25.495Z,64.59
2018-06-21T01:25:25.565Z,64.40
2018-06-21T01:26:25.540Z,64.40
2018-06-21T01:27:25.568Z,64.31
2018-06-21T01:28:25.591Z,64.59
2018-06-21T01:29:25.610Z,64.59
2018-06-21T01:30:25.635Z,64.50
2018-06-21T01:31:25.660Z,64.21
2018-06-21T01:32:25.682Z,64.59
2018-06-21T01:33:25.710Z,64.31
2018-06-21T01:34:25.734Z,64.40
2018-06-21T01:35:25.751Z,64.50
2018-06-21T01:36:25.775Z,64.89
2018-06-21T01:37:25.802Z,64.01
2018-06-21T01:38:25.825Z,64.59
2018-06-21T01:39:25.851Z,64.21
2018-06-21T01:40:25.873Z,64.11
2018-06-21T01:41:25.894Z,64.98
2018-06-21T01:42:25.917Z,64.31
2018-06-21T01:43:25.943Z,64.21
2018-06-21T01:44:25.967Z,64.31
2018-06-21T01:45:25.986Z,64.89
2018-06-21T01:46:26.010Z,64.01
2018-06-21T01:47:26.032Z,64.89
2018-06-21T01:48:26.053Z,64.31
2018-06-21T01:49:26.082Z,64.89
2018-06-21T01:50:26.106Z,64.59
2018-06-21T01:51:26.127Z,64.79
2018-06-21T01:52:26.150Z,64.89
2018-06-21T01:53:26.176Z,64.50
2018-06-21T01:54:26.202Z,64.50
2018-06-21T01:55:26.223Z,64.40
2018-06-21T01:56:26.248Z,64.21
2018-06-21T01:57:26.265Z,64.89
2018-06-21T01:58:26.288Z,64.79
2018-06-21T01:59:26.318Z,64.59
2018-06-21T02:00:26.342Z,64.21
2018-06-21T02:01:26.360Z,64.50
2018-06-21T02:02:26.384Z,64.37
2018-06-21T02:03:26.405Z,64.89
2018-06-21T02:04:26.428Z,64.01
2018-06-21T02:05:26.459Z,64.56
2018-06-21T02:06:26.478Z,64.79
2018-06-21T02:07:26.501Z,64.11
2018-06-21T02:08:26.523Z,64.28
2018-06-21T02:09:26.550Z,64.89
2018-06-21T02:10:26.573Z,64.59
2018-06-21T02:11:26.603Z,64.59
2018-06-21T02:12:26.621Z,64.01
2018-06-21T02:13:26.643Z,64.59
2018-06-21T02:14:26.661Z,64.59
2018-06-21T02:15:26.689Z,64.86
2018-06-21T02:16:26.712Z,64.89
2018-06-21T02:17:26.731Z,64.98
2018-06-21T02:18:26.762Z,64.18
2018-06-21T02:19:26.778Z,64.21
2018-06-21T02:20:26.804Z,64.59
2018-06-21T02:21:26.838Z,64.08
2018-06-21T02:22:26.856Z,64.56
2018-06-21T02:23:26.878Z,64.76
2018-06-21T02:24:26.894Z,63.98
2018-06-21T02:25:26.924Z,64.86
2018-06-21T02:26:26.946Z,64.59
2018-06-21T02:27:26.974Z,64.37
2018-06-21T02:28:26.994Z,64.79
2018-06-21T02:29:27.015Z,64.50
2018-06-21T02:30:27.037Z,64.08
2018-06-21T02:31:27.067Z,63.98
2018-06-21T02:32:27.088Z,64.86
2018-06-21T02:33:27.107Z,64.56
2018-06-21T02:34:27.141Z,64.56
2018-06-21T02:35:27.153Z,63.98
2018-06-21T02:36:27.175Z,64.01
2018-06-21T02:37:27.211Z,64.79
2018-06-21T02:38:27.224Z,64.66
2018-06-21T02:39:27.248Z,64.98
2018-06-21T02:40:27.276Z,64.76
2018-06-21T02:41:27.297Z,64.01
2018-06-21T02:42:27.321Z,64.11
2018-06-21T02:43:27.344Z,64.37
2018-06-21T02:44:27.371Z,64.69
2018-06-21T02:45:27.402Z,63.98
2018-06-21T02:46:27.409Z,64.69
2018-06-21T02:47:27.438Z,64.79
2018-06-21T02:48:27.460Z,64.37
2018-06-21T02:49:27.479Z,64.01
2018-06-21T02:50:27.503Z,64.56
2018-06-21T02:51:27.529Z,64.47
2018-06-21T02:52:27.551Z,63.98
2018-06-21T02:53:27.577Z,63.98
2018-06-21T02:54:27.601Z,64.66
2018-06-21T02:55:27.619Z,64.66
2018-06-21T02:56:27.642Z,64.50
2018-06-21T02:57:27.671Z,64.56
2018-06-21T02:58:27.697Z,64.11
2018-06-21T02:59:27.718Z,64.47
2018-06-21T03:00:27.741Z,64.56
2018-06-21T03:01:27.763Z,64.66
2018-06-21T03:02:27.785Z,64.76
2018-06-21T03:03:27.808Z,64.47
2018-06-21T03:04:27.832Z,64.76
2018-06-21T03:05:27.860Z,64.86
2018-06-21T03:06:27.881Z,64.76
2018-06-21T03:07:27.904Z,64.66
2018-06-21T03:08:27.927Z,65.24
2018-06-21T03:09:27.950Z,65.24
2018-06-21T03:10:27.972Z,65.14
2018-06-21T03:11:28.000Z,65.05
2018-06-21T03:12:28.023Z,65.34
2018-06-21T03:13:28.043Z,65.53
2018-06-21T03:14:28.067Z,65.63
2018-06-21T03:15:28.088Z,65.72
2018-06-21T03:16:28.109Z,65.24
2018-06-21T03:17:28.144Z,65.43
2018-06-21T03:18:28.160Z,65.53
2018-06-21T03:19:28.180Z,65.63
2018-06-21T03:20:28.202Z,65.63
2018-06-21T03:21:28.229Z,65.53
2018-06-21T03:22:28.255Z,65.91
2018-06-21T03:23:28.279Z,65.63
2018-06-21T03:24:28.301Z,65.91
2018-06-21T03:25:28.321Z,66.11
2018-06-21T03:26:28.344Z,66.11
2018-06-21T03:27:28.373Z,66.30
2018-06-21T03:28:28.394Z,66.20
2018-06-21T03:29:28.412Z,66.30
2018-06-21T03:30:28.435Z,66.30
2018-06-21T03:31:28.462Z,66.01
2018-06-21T03:32:28.485Z,66.69
2018-06-21T03:33:28.512Z,66.40
2018-06-21T03:34:28.534Z,66.49
2018-06-21T03:35:28.554Z,66.69
2018-06-21T03:36:28.577Z,66.88
2018-06-21T03:37:28.604Z,66.69
2018-06-21T03:38:28.630Z,66.78
2018-06-21T03:39:28.649Z,67.07
2018-06-21T03:40:28.672Z,67.07
2018-06-21T03:41:28.691Z,67.27
2018-06-21T03:42:28.717Z,67.27
2018-06-21T03:43:28.744Z,66.97
2018-06-21T03:44:28.767Z,67.07
2018-06-21T03:45:28.788Z,67.46
2018-06-21T03:46:28.810Z,67.46
2018-06-21T03:47:28.832Z,67.27
2018-06-21T03:48:28.853Z,67.36
2018-06-21T03:49:28.884Z,67.36
2018-06-21T03:50:28.906Z,67.55
2018-06-21T03:51:28.923Z,68.04
2018-06-21T03:52:28.946Z,67.85
2018-06-21T03:53:28.974Z,67.65
2018-06-21T03:54:28.997Z,67.75
2018-06-21T03:55:29.024Z,67.65
2018-06-21T03:56:29.045Z,67.55
2018-06-21T03:57:29.064Z,67.46
2018-06-21T03:58:29.100Z,67.75
2018-06-21T03:59:29.112Z,67.55
2018-06-21T04:00:29.136Z,67.55
2018-06-21T04:01:29.156Z,67.85
2018-06-21T04:02:29.178Z,67.85
2018-06-21T04:03:29.204Z,67.94
2018-06-21T04:04:29.227Z,68.13
2018-06-21T04:05:29.336Z,67.94
2018-06-21T04:06:29.277Z,68.13
2018-06-21T04:07:29.295Z,68.23
2018-06-21T04:08:29.377Z,68.04
2018-06-21T04:09:29.345Z,68.33
2018-06-21T04:10:29.369Z,67.85
2018-06-21T04:11:29.397Z,67.85
2018-06-21T04:12:29.414Z,68.13
2018-06-21T04:13:29.436Z,68.13
2018-06-21T04:14:29.460Z,68.13
2018-06-21T04:15:29.484Z,67.94
2018-06-21T04:16:29.508Z,67.46
2018-06-21T04:17:29.537Z,67.36
2018-06-21T04:18:29.550Z,67.55
2018-06-21T04:19:29.579Z,67.46
2018-06-21T04:20:29.602Z,67.65
2018-06-21T04:21:29.625Z,67.46
2018-06-21T04:22:29.649Z,67.55
2018-06-21T04:23:29.668Z,67.46
2018-06-21T04:24:29.692Z,67.46
2018-06-21T04:25:29.718Z,67.65
2018-06-21T04:26:29.739Z,67.65
2018-06-21T04:27:29.762Z,67.55
2018-06-21T04:28:29.787Z,67.75
2018-06-21T04:29:29.804Z,67.36
2018-06-21T04:30:29.828Z,67.85
2018-06-21T04:31:29.857Z,67.75
2018-06-21T04:32:29.885Z,67.94
2018-06-21T04:33:29.898Z,67.85
2018-06-21T04:34:29.921Z,67.94
2018-06-21T04:35:29.946Z,67.81
2018-06-21T04:36:29.966Z,67.81
2018-06-21T04:37:29.994Z,67.75
2018-06-21T04:38:30.018Z,68.04
2018-06-21T04:39:30.043Z,67.91
2018-06-21T04:40:30.059Z,67.94
2018-06-21T04:41:30.086Z,67.46
2018-06-21T04:42:30.108Z,67.65
2018-06-21T04:43:30.135Z,67.52
2018-06-21T04:44:30.160Z,67.46
2018-06-21T04:45:30.176Z,67.36
2018-06-21T04:46:30.200Z,67.46
2018-06-21T04:47:30.226Z,67.46
2018-06-21T04:48:30.247Z,67.46
2018-06-21T04:49:30.268Z,67.14
2018-06-21T04:50:30.290Z,66.94
2018-06-21T04:51:30.314Z,67.17
2018-06-21T04:52:30.338Z,67.07
2018-06-21T04:53:30.364Z,67.17
2018-06-21T04:54:30.389Z,67.23
2018-06-21T04:55:30.408Z,67.27
2018-06-21T04:56:30.430Z,67.17
2018-06-21T04:57:30.459Z,66.97
2018-06-21T04:58:30.481Z,66.94
2018-06-21T04:59:30.501Z,66.46
2018-06-21T05:00:30.527Z,66.75
2018-06-21T05:01:30.545Z,66.49
2018-06-21T05:02:30.568Z,66.69
2018-06-21T05:03:30.597Z,66.30
2018-06-21T05:04:30.620Z,66.17
2018-06-21T05:05:30.645Z,66.01
2018-06-21T05:06:30.663Z,65.88
2018-06-21T05:07:30.684Z,65.69
2018-06-21T05:08:30.709Z,65.78
2018-06-21T05:09:30.734Z,65.50
2018-06-21T05:10:30.756Z,65.01
2018-06-21T05:11:30.780Z,64.72
2018-06-21T05:12:30.802Z,64.72
2018-06-21T05:13:30.836Z,64.72
2018-06-21T05:14:30.847Z,64.72
2018-06-21T05:15:30.871Z,64.24
2018-06-21T05:16:30.893Z,64.72
2018-06-21T05:17:30.920Z,64.15
2018-06-21T05:18:30.942Z,64.53
2018-06-21T05:19:30.961Z,63.95
2018-06-21T05:20:30.983Z,63.47
2018-06-21T05:21:31.010Z,63.31
2018-06-21T05:22:31.035Z,63.67
2018-06-21T05:23:31.060Z,63.70
2018-06-21T05:24:31.081Z,63.60
2018-06-21T05:25:31.101Z,62.89
2018-06-21T05:26:31.124Z,63.09
2018-06-21T05:27:31.156Z,63.28
2018-06-21T05:28:31.172Z,62.54
2018-06-21T05:29:31.193Z,62.79
2018-06-21T05:30:31.223Z,62.79
2018-06-21T05:31:31.237Z,62.25
2018-06-21T05:32:31.261Z,62.25
2018-06-21T05:33:31.287Z,62.63
2018-06-21T05:34:31.311Z,62.15
2018-06-21T05:35:31.332Z,62.22
2018-06-21T05:36:31.354Z,62.31
2018-06-21T05:37:31.457Z,62.31
2018-06-21T05:38:31.408Z,62.41
2018-06-21T05:39:31.427Z,61.93
2018-06-21T05:40:31.450Z,62.12
2018-06-21T05:41:31.468Z,62.02
2018-06-21T05:42:31.491Z,62.31
2018-06-21T05:43:31.519Z,62.22
2018-06-21T05:44:31.635Z,62.02
2018-06-21T05:45:31.560Z,62.12
2018-06-21T05:46:31.584Z,62.02
2018-06-21T05:47:31.609Z,62.02
2018-06-21T05:48:31.633Z,62.12
2018-06-21T05:49:31.659Z,62.12
2018-06-21T05:50:31.685Z,61.93
2018-06-21T05:51:31.699Z,62.12
2018-06-21T05:52:31.722Z,61.83
2018-06-21T05:53:31.751Z,61.64
2018-06-21T05:54:31.773Z,61.64
2018-06-21T05:55:31.800Z,61.74
2018-06-21T05:56:31.830Z,62.12
2018-06-21T05:57:31.840Z,62.89
2018-06-21T05:58:31.865Z,62.79
2018-06-21T05:59:31.899Z,62.89
2018-06-21T06:00:31.912Z,62.60
2018-06-21T06:01:31.932Z,62.89
2018-06-21T06:02:31.957Z,62.73
2018-06-21T06:03:31.977Z,62.79
2018-06-21T06:04:32.076Z,63.15
2018-06-21T06:05:32.027Z,64.21
2018-06-21T06:06:32.054Z,64.66
2018-06-21T06:07:32.075Z,65.63
2018-06-21T06:08:32.101Z,65.78
2018-06-21T06:09:32.122Z,66.07
2018-06-21T06:10:32.145Z,66.36
2018-06-21T06:11:32.168Z,66.65
2018-06-21T06:12:32.189Z,66.27
2018-06-21T06:13:32.209Z,66.27
2018-06-21T06:14:32.238Z,66.75
2018-06-21T06:15:32.260Z,66.85
2018-06-21T06:16:32.283Z,67.13
2018-06-21T06:17:32.302Z,67.49
2018-06-21T06:18:32.325Z,67.49
2018-06-21T06:19:32.349Z,67.87
2018-06-21T06:20:32.368Z,68.35
2018-06-21T06:21:32.396Z,67.87
2018-06-21T06:22:32.418Z,68.06
2018-06-21T06:23:32.440Z,68.26
2018-06-21T06:24:32.464Z,67.68
2018-06-21T06:25:32.489Z,67.39
2018-06-21T06:26:32.512Z,67.33
2018-06-21T06:27:32.534Z,66.78
2018-06-21T06:28:32.561Z,65.81
2018-06-21T06:29:32.575Z,65.43
2018-06-21T06:30:32.598Z,65.27
2018-06-21T06:31:32.625Z,64.50
2018-06-21T06:32:32.647Z,64.50
2018-06-21T06:33:32.668Z,64.21
2018-06-21T06:34:32.712Z,63.34
2018-06-21T06:35:32.715Z,63.57
2018-06-21T06:36:32.737Z,63.18
2018-06-21T06:37:32.764Z,63.18
2018-06-21T06:38:32.788Z,62.60
2018-06-21T06:39:32.805Z,62.79
2018-06-21T06:40:32.968Z,62.22
2018-06-21T06:41:32.855Z,62.60
2018-06-21T06:42:32.878Z,62.44
2018-06-21T06:43:32.903Z,62.15
2018-06-21T06:44:32.933Z,62.22
2018-06-21T06:45:32.946Z,62.25
2018-06-21T06:46:32.969Z,62.05
2018-06-21T06:47:33.004Z,61.86
2018-06-21T06:48:33.020Z,61.57
2018-06-21T06:49:33.037Z,61.67
2018-06-21T06:50:33.060Z,61.19
2018-06-21T06:51:33.082Z,61.28
2018-06-21T06:52:33.104Z,61.77
2018-06-21T06:53:33.131Z,60.99
2018-06-21T06:54:33.180Z,60.83
2018-06-21T06:55:33.179Z,60.64
2018-06-21T06:56:33.198Z,60.73
2018-06-21T06:57:33.227Z,60.44
2018-06-21T06:58:33.250Z,60.16
2018-06-21T06:59:33.282Z,60.35
2018-06-21T07:00:33.293Z,60.25
2018-06-21T07:01:33.317Z,59.96
2018-06-21T07:02:33.336Z,60.06
2018-06-21T07:03:33.364Z,60.35
2018-06-21T07:04:33.386Z,60.16
2018-06-21T07:05:33.406Z,60.25
2018-06-21T07:06:33.429Z,60.06
2018-06-21T07:07:33.456Z,60.16
2018-06-21T07:08:33.634Z,59.99
2018-06-21T07:09:33.506Z,59.80
2018-06-21T07:10:33.532Z,59.89
2018-06-21T07:11:33.547Z,58.83
2018-06-21T07:12:33.570Z,59.02
2018-06-21T07:13:33.597Z,59.41
2018-06-21T07:14:33.659Z,58.45
2018-06-21T07:15:33.647Z,58.54
2018-06-21T07:16:33.668Z,58.25
2018-06-21T07:17:33.687Z,58.35
2018-06-21T07:18:33.713Z,58.57
2018-06-21T07:19:33.735Z,58.37
2018-06-21T07:20:33.758Z,57.99
2018-06-21T07:21:33.788Z,57.60
2018-06-21T07:22:33.809Z,57.70
2018-06-21T07:23:33.830Z,57.21
2018-06-21T07:24:33.856Z,56.83
2018-06-21T07:25:33.880Z,56.25
2018-06-21T07:26:33.902Z,55.77
2018-06-21T07:27:33.928Z,55.87
2018-06-21T07:28:34.014Z,55.38
2018-06-21T07:29:33.971Z,55.38
2018-06-21T07:30:34.006Z,55.57
2018-06-21T07:31:34.017Z,55.09
2018-06-21T07:32:34.039Z,54.73
2018-06-21T07:33:34.123Z,54.05
2018-06-21T07:34:34.094Z,54.25
2018-06-21T07:35:34.114Z,53.86
2018-06-21T07:36:34.135Z,53.77
2018-06-21T07:37:34.165Z,53.28
2018-06-21T07:38:34.187Z,52.89
2018-06-21T07:39:34.206Z,52.61
2018-06-21T07:40:34.239Z,52.34
2018-06-21T07:41:34.256Z,52.63
2018-06-21T07:42:34.285Z,52.14
2018-06-21T07:43:34.306Z,52.24
2018-06-21T07:44:34.330Z,51.86
2018-06-21T07:45:34.347Z,51.47
2018-06-21T07:46:34.379Z,51.86
2018-06-21T07:47:34.443Z,51.56
2018-06-21T07:48:34.429Z,51.86
2018-06-21T07:49:34.453Z,50.98
2018-06-21T07:50:34.483Z,50.89
2018-06-21T07:51:34.502Z,50.89
2018-06-21T07:52:34.521Z,50.98
2018-06-21T07:53:34.574Z,50.89
2018-06-21T07:54:34.575Z,50.79
2018-06-21T07:55:34.597Z,50.40
2018-06-21T07:56:34.623Z,50.31
2018-06-21T07:57:34.643Z,50.40
2018-06-21T07:58:34.669Z,50.31
2018-06-21T07:59:34.699Z,50.28
2018-06-21T08:00:34.717Z,50.48
2018-06-21T08:01:34.740Z,50.28
2018-06-21T08:02:34.767Z,49.80
2018-06-21T08:03:34.785Z,49.82
2018-06-21T08:04:34.940Z,49.73
2018-06-21T08:05:34.912Z,49.60
2018-06-21T08:06:34.862Z,49.60
2018-06-21T08:07:34.884Z,49.51
2018-06-21T08:08:34.911Z,49.70
2018-06-21T08:09:34.934Z,49.12
2018-06-21T08:10:34.959Z,49.44
2018-06-21T08:11:34.986Z,48.83
2018-06-21T08:12:35.015Z,48.95
2018-06-21T08:13:35.031Z,49.15
2018-06-21T08:14:35.056Z,49.73
2018-06-21T08:15:35.096Z,49.54
2018-06-21T08:16:35.106Z,49.63
2018-06-21T08:17:35.137Z,49.73
2018-06-21T08:18:35.151Z,49.05
2018-06-21T08:19:35.187Z,48.95
2018-06-21T08:20:35.202Z,49.05
2018-06-21T08:21:35.234Z,49.05
2018-06-21T08:22:35.251Z,49.63
2018-06-21T08:23:35.271Z,49.73
2018-06-21T08:24:35.346Z,49.82
2018-06-21T08:25:35.325Z,49.24
2018-06-21T08:26:35.350Z,48.76
2018-06-21T08:27:35.374Z,48.86
2018-06-21T08:28:35.413Z,48.76
2018-06-21T08:29:35.419Z,48.66
2018-06-21T08:30:35.441Z,49.05
2018-06-21T08:31:35.474Z,48.86
2018-06-21T08:32:35.495Z,48.57
2018-06-21T08:33:35.520Z,48.57
2018-06-21T08:34:35.541Z,48.86
2018-06-21T08:35:35.562Z,48.27
2018-06-21T08:36:35.588Z,48.39
2018-06-21T08:37:35.618Z,48.08
2018-06-21T08:38:35.677Z,47.79
2018-06-21T08:39:35.662Z,47.79
2018-06-21T08:40:35.690Z,47.91
2018-06-21T08:41:35.713Z,47.81
2018-06-21T08:42:35.740Z,48.01
2018-06-21T08:43:35.766Z,47.81
2018-06-21T08:44:35.788Z,47.62
2018-06-21T08:45:35.807Z,47.43
2018-06-21T08:46:35.839Z,47.33
2018-06-21T08:47:35.861Z,47.24
2018-06-21T08:48:35.882Z,46.94
2018-06-21T08:49:35.914Z,47.14
2018-06-21T08:50:35.937Z,47.04
2018-06-21T08:51:35.952Z,47.14
2018-06-21T08:52:35.978Z,47.14
2018-06-21T08:53:36.010Z,46.46
2018-06-21T08:54:36.034Z,46.66
2018-06-21T08:55:36.056Z,46.44
2018-06-21T08:56:36.076Z,46.56
2018-06-21T08:57:36.103Z,46.92
2018-06-21T08:58:36.211Z,46.73
2018-06-21T08:59:36.168Z,46.53
2018-06-21T09:00:36.182Z,46.53
2018-06-21T09:01:36.237Z,46.73
2018-06-21T09:02:36.225Z,46.44
2018-06-21T09:03:36.254Z,46.53
2018-06-21T09:04:36.274Z,46.53
2018-06-21T09:05:36.296Z,46.44
2018-06-21T09:06:36.323Z,46.34
2018-06-21T09:07:36.348Z,46.53
2018-06-21T09:08:36.397Z,46.53
2018-06-21T09:09:36.470Z,46.44
2018-06-21T09:10:36.423Z,46.83
2018-06-21T09:11:36.445Z,46.92
2018-06-21T09:12:36.469Z,46.34
2018-06-21T09:13:36.529Z,46.53
2018-06-21T09:14:36.523Z,46.44
2018-06-21T09:15:36.546Z,46.53
2018-06-21T09:16:36.585Z,46.32
2018-06-21T09:17:36.600Z,47.21
2018-06-21T09:18:36.615Z,46.63
2018-06-21T09:19:36.645Z,46.61
2018-06-21T09:20:36.668Z,46.63
2018-06-21T09:21:36.698Z,46.42
2018-06-21T09:22:36.744Z,46.44
2018-06-21T09:23:36.739Z,46.53
2018-06-21T09:24:36.765Z,46.63
2018-06-21T09:25:36.798Z,46.34
2018-06-21T09:26:36.816Z,46.44
2018-06-21T09:27:36.838Z,46.25
2018-06-21T09:28:36.860Z,46.53
2018-06-21T09:29:36.884Z,46.73
2018-06-21T09:30:36.909Z,46.44
2018-06-21T09:31:36.937Z,46.34
2018-06-21T09:32:36.962Z,46.15
2018-06-21T09:33:36.986Z,45.98
2018-06-21T09:34:37.005Z,45.49
2018-06-21T09:35:37.029Z,45.88
2018-06-21T09:36:37.060Z,45.78
2018-06-21T09:37:37.084Z,45.78
2018-06-21T09:38:37.108Z,45.88
2018-06-21T09:39:37.133Z,45.78
2018-06-21T09:40:37.157Z,45.98
2018-06-21T09:41:37.182Z,45.78
2018-06-21T09:42:37.205Z,46.56
2018-06-21T09:43:37.414Z,46.63
2018-06-21T09:44:37.262Z,46.63
2018-06-21T09:45:37.275Z,46.44
2018-06-21T09:46:37.301Z,47.31
2018-06-21T09:47:37.323Z,46.92
2018-06-21T09:48:37.348Z,47.21
2018-06-21T09:49:37.379Z,47.50
2018-06-21T09:50:37.401Z,47.31
2018-06-21T09:51:37.423Z,47.31
2018-06-21T09:52:37.503Z,47.69
2018-06-21T09:53:37.475Z,48.06
2018-06-21T09:54:37.503Z,47.86
2018-06-21T09:55:37.522Z,47.79
2018-06-21T09:56:37.546Z,48.16
2018-06-21T09:57:37.590Z,47.86
2018-06-21T09:58:37.592Z,47.96
2018-06-21T09:59:37.620Z,47.67
2018-06-21T10:00:37.643Z,48.16
2018-06-21T10:01:37.667Z,48.44
2018-06-21T10:02:37.701Z,47.86
2018-06-21T10:03:37.741Z,48.54
2018-06-21T10:04:37.741Z,48.35
2018-06-21T10:05:37.768Z,47.96
2018-06-21T10:06:37.793Z,48.44
2018-06-21T10:07:37.810Z,48.54
2018-06-21T10:08:37.836Z,48.44
2018-06-21T10:09:37.864Z,47.96
2018-06-21T10:10:37.889Z,48.06
2018-06-21T10:11:37.921Z,48.35
2018-06-21T10:12:37.938Z,47.86
2018-06-21T10:13:37.962Z,47.77
2018-06-21T10:14:37.984Z,48.06
2018-06-21T10:15:38.048Z,47.96
2018-06-21T10:16:38.045Z,47.86
2018-06-21T10:17:38.055Z,47.86
2018-06-21T10:18:38.080Z,48.16
2018-06-21T10:19:38.102Z,47.96
2018-06-21T10:20:38.133Z,48.06
2018-06-21T10:21:38.154Z,47.77
2018-06-21T10:22:38.179Z,47.77
2018-06-21T10:23:38.196Z,47.48
2018-06-21T10:24:38.227Z,47.38
2018-06-21T10:25:38.261Z,47.28
2018-06-21T10:26:38.277Z,47.09
2018-06-21T10:27:38.300Z,47.09
2018-06-21T10:28:38.324Z,47.09
2018-06-21T10:29:38.344Z,47.09
2018-06-21T10:30:38.369Z,47.19
2018-06-21T10:31:38.400Z,46.90
2018-06-21T10:32:38.422Z,47.19
2018-06-21T10:33:38.450Z,46.70
2018-06-21T10:34:38.468Z,46.53
2018-06-21T10:35:38.490Z,46.83
2018-06-21T10:36:38.529Z,46.63
2018-06-21T10:37:38.542Z,46.73
2018-06-21T10:38:38.566Z,46.25
2018-06-21T10:39:38.590Z,46.34
2018-06-21T10:40:38.614Z,46.34
2018-06-21T10:41:38.644Z,46.25
2018-06-21T10:42:38.684Z,46.63
2018-06-21T10:43:38.692Z,46.15
2018-06-21T10:44:38.712Z,46.34
2018-06-21T10:45:38.748Z,46.53
2018-06-21T10:46:38.761Z,46.44
2018-06-21T10:47:38.794Z,46.63
2018-06-21T10:48:38.812Z,46.34
2018-06-21T10:49:38.835Z,46.73
2018-06-21T10:50:38.862Z,46.63
2018-06-21T10:51:38.881Z,47.09
2018-06-21T10:52:38.911Z,47.09
2018-06-21T10:53:38.935Z,47.28
2018-06-21T10:54:38.958Z,47.28
2018-06-21T10:55:38.977Z,47.28
2018-06-21T10:56:39.053Z,47.28
2018-06-21T10:57:39.036Z,47.19
2018-06-21T10:58:39.070Z,47.28
2018-06-21T10:59:39.080Z,47.09
2018-06-21T11:00:39.103Z,46.90
2018-06-21T11:01:39.124Z,46.90
2018-06-21T11:02:39.149Z,46.51
2018-06-21T11:03:39.177Z,46.51
2018-06-21T11:04:39.202Z,46.63
2018-06-21T11:05:39.221Z,46.61
2018-06-21T11:06:39.247Z,46.12
2018-06-21T11:07:39.274Z,46.53
2018-06-21T11:08:39.318Z,46.53
2018-06-21T11:09:39.320Z,45.95
2018-06-21T11:10:39.345Z,45.57
2018-06-21T11:11:39.367Z,45.86
2018-06-21T11:12:39.390Z,45.76
2018-06-21T11:13:39.419Z,45.76
2018-06-21T11:14:39.448Z,45.37
2018-06-21T11:15:39.540Z,45.37
2018-06-21T11:16:39.511Z,45.08
2018-06-21T11:17:39.512Z,45.18
2018-06-21T11:18:39.534Z,44.50
2018-06-21T11:19:39.572Z,44.21
2018-06-21T11:20:39.587Z,44.21
2018-06-21T11:21:40.611Z,44.60
2018-06-21T11:22:39.636Z,43.82
2018-06-21T11:23:39.661Z,44.12
2018-06-21T11:24:39.713Z,43.73
2018-06-21T11:25:39.708Z,43.54
2018-06-21T11:26:39.728Z,43.54
2018-06-21T11:27:40.660Z,43.24
2018-06-21T11:28:40.633Z,42.76
2018-06-21T11:29:39.804Z,42.76
2018-06-21T11:30:39.823Z,42.76
2018-06-21T11:31:39.871Z,42.47
2018-06-21T11:32:39.878Z,42.08
2018-06-21T11:33:39.909Z,42.08
2018-06-21T11:34:39.939Z,41.99
2018-06-21T11:35:39.950Z,41.99
2018-06-21T11:36:39.991Z,42.37
2018-06-21T11:37:40.016Z,41.89
2018-06-21T11:38:40.599Z,42.47
2018-06-21T11:39:40.598Z,41.79
2018-06-21T11:40:40.079Z,41.89
2018-06-21T11:41:40.116Z,41.70
2018-06-21T11:42:40.123Z,41.50
2018-06-21T11:43:40.239Z,41.21
2018-06-21T11:44:40.236Z,41.31
2018-06-21T11:45:40.215Z,40.92
2018-06-21T11:46:40.238Z,40.63
2018-06-21T11:47:40.252Z,40.63
2018-06-21T11:48:40.275Z,40.53
2018-06-21T11:49:40.301Z,40.83
2018-06-21T11:50:40.334Z,40.44
2018-06-21T11:51:40.356Z,39.95
2018-06-21T11:52:40.399Z,40.34
2018-06-21T11:53:40.399Z,39.76
2018-06-21T11:54:40.416Z,39.57
2018-06-21T11:55:40.441Z,39.37
2018-06-21T11:56:40.469Z,39.18
2018-06-21T11:57:40.482Z,39.09
2018-06-21T11:58:40.522Z,39.09
2018-06-21T11:59:40.532Z,38.50
2018-06-21T12:00:40.573Z,38.53
2018-06-21T12:01:40.604Z,38.62
2018-06-21T12:02:40.616Z,38.12
2018-06-21T12:03:40.671Z,37.92
2018-06-21T12:04:40.839Z,37.92
2018-06-21T12:05:40.850Z,38.02
2018-06-21T12:06:40.705Z,37.54
2018-06-21T12:07:40.785Z,37.63
2018-06-21T12:08:40.867Z,37.17
2018-06-21T12:09:40.978Z,37.05
2018-06-21T12:10:40.833Z,36.68
2018-06-21T12:11:40.857Z,36.49
2018-06-21T12:12:40.953Z,36.88
2018-06-21T12:13:41.065Z,36.78
2018-06-21T12:14:40.934Z,36.20
2018-06-21T12:15:41.171Z,36.00
2018-06-21T12:16:40.999Z,35.91
2018-06-21T12:17:41.083Z,35.81
2018-06-21T12:18:41.093Z,36.30
2018-06-21T12:19:41.098Z,36.30
2018-06-21T12:20:41.216Z,35.81
2018-06-21T12:21:41.074Z,35.52
2018-06-21T12:22:41.325Z,35.72
2018-06-21T12:23:41.243Z,35.72
2018-06-21T12:24:41.309Z,35.72
2018-06-21T12:25:41.268Z,35.23
2018-06-21T12:26:41.336Z,35.23
2018-06-21T12:27:41.285Z,35.12
2018-06-21T12:28:41.467Z,35.42
2018-06-21T12:29:41.425Z,35.41
2018-06-21T12:30:41.427Z,35.33
2018-06-21T12:31:41.345Z,35.41
2018-06-21T12:32:41.537Z,35.31
2018-06-21T12:33:41.459Z,34.92
2018-06-21T12:34:41.772Z,34.83
2018-06-21T12:35:41.578Z,35.12
2018-06-21T12:36:41.511Z,34.75
2018-06-21T12:37:41.495Z,35.04
2018-06-21T12:38:41.568Z,34.73
2018-06-21T12:39:41.544Z,34.65
2018-06-21T12:40:41.627Z,34.84
2018-06-21T12:41:41.629Z,34.36
2018-06-21T12:42:41.601Z,34.17
2018-06-21T12:43:41.690Z,34.17
2018-06-21T12:44:41.905Z,34.36
2018-06-21T12:45:41.711Z,34.17
2018-06-21T12:46:41.894Z,34.75
2018-06-21T12:47:41.761Z,35.13
2018-06-21T12:48:41.753Z,34.94
2018-06-21T12:49:41.875Z,35.13
2018-06-21T12:50:41.789Z,35.04
2018-06-21T12:51:41.822Z,35.23
2018-06-21T12:52:41.908Z,36.10